sensor_id;sensor_type;location;lat;lon;timestamp;P1;durP1;ratioP1;P2;durP2;ratioP2
11111;SDS011;5609;49.466;8.468;2023-06-05T00:00:50;2.90;;;2.10;;
11111;SDS011;5609;49.466;8.468;2023-06-05T00:03:17;2.33;;;2.10;;
11111;SDS011;5609;49.466;8.468;2023-06-05T00:05:45;2.30;;;2.10;;
11111;SDS011;5609;49.466;8.468;2023-06-05T00:08:12;2.70;;;2.20;;
11111;SDS011;5609;49.466;8.468;2023-06-05T00:10:39;4.33;;;2.30;;
11111;SDS011;5609;49.466;8.468;2023-06-05T00:13:06;4.77;;;2.00;;
11111;SDS011;5609;49.466;8.468;2023-06-05T00:15:33;2.77;;;2.10;;
11111;SDS011;5609;49.466;8.468;2023-06-05T00:18:04;3.83;;;1.87;;
11111;SDS011;5609;49.466;8.468;2023-06-05T00:20:31;3.23;;;1.90;;
11111;SDS011;5609;49.466;8.468;2023-06-05T00:22:58;2.73;;;2.20;;
11111;SDS011;5609;49.466;8.468;2023-06-05T00:25:25;3.20;;;2.10;;
11111;SDS011;5609;49.466;8.468;2023-06-05T00:27:52;2.47;;;2.00;;
11111;SDS011;5609;49.466;8.468;2023-06-05T00:30:20;3.40;;;2.10;;
11111;SDS011;5609;49.466;8.468;2023-06-05T00:32:47;2.70;;;2.10;;
11111;SDS011;5609;49.466;8.468;2023-06-05T00:35:15;3.20;;;2.10;;
11111;SDS011;5609;49.466;8.468;2023-06-05T00:37:42;2.97;;;2.00;;
11111;SDS011;5609;49.466;8.468;2023-06-05T00:40:12;4.33;;;1.90;;
11111;SDS011;5609;49.466;8.468;2023-06-05T00:42:39;2.50;;;1.97;;
11111;SDS011;5609;49.466;8.468;2023-06-05T00:45:06;2.70;;;1.90;;
11111;SDS011;5609;49.466;8.468;2023-06-05T00:47:34;4.73;;;2.30;;
11111;SDS011;5609;49.466;8.468;2023-06-05T00:50:01;2.57;;;2.30;;
11111;SDS011;5609;49.466;8.468;2023-06-05T00:52:30;3.53;;;2.40;;
11111;SDS011;5609;49.466;8.468;2023-06-05T00:54:59;4.73;;;2.10;;
11111;SDS011;5609;49.466;8.468;2023-06-05T00:57:28;2.93;;;2.13;;
11111;SDS011;5609;49.466;8.468;2023-06-05T00:59:59;2.87;;;2.00;;
11111;SDS011;5609;49.466;8.468;2023-06-05T01:02:31;3.63;;;2.13;;
11111;SDS011;5609;49.466;8.468;2023-06-05T01:05:00;2.37;;;2.00;;
11111;SDS011;5609;49.466;8.468;2023-06-05T01:07:30;3.57;;;2.03;;
11111;SDS011;5609;49.466;8.468;2023-06-05T01:09:57;5.07;;;2.00;;
11111;SDS011;5609;49.466;8.468;2023-06-05T01:12:26;2.50;;;1.90;;
11111;SDS011;5609;49.466;8.468;2023-06-05T01:14:54;3.93;;;2.00;;
11111;SDS011;5609;49.466;8.468;2023-06-05T01:17:23;2.07;;;1.67;;
11111;SDS011;5609;49.466;8.468;2023-06-05T01:19:52;2.47;;;1.90;;
11111;SDS011;5609;49.466;8.468;2023-06-05T01:22:20;2.43;;;2.00;;
11111;SDS011;5609;49.466;8.468;2023-06-05T01:24:51;2.07;;;1.80;;
11111;SDS011;5609;49.466;8.468;2023-06-05T01:27:21;3.90;;;2.10;;
11111;SDS011;5609;49.466;8.468;2023-06-05T01:29:51;2.43;;;1.90;;
11111;SDS011;5609;49.466;8.468;2023-06-05T01:32:21;3.67;;;1.80;;
11111;SDS011;5609;49.466;8.468;2023-06-05T01:34:51;3.57;;;1.80;;
11111;SDS011;5609;49.466;8.468;2023-06-05T01:37:21;3.30;;;2.00;;
11111;SDS011;5609;49.466;8.468;2023-06-05T01:39:50;2.20;;;2.00;;
11111;SDS011;5609;49.466;8.468;2023-06-05T01:42:21;2.20;;;2.00;;
11111;SDS011;5609;49.466;8.468;2023-06-05T01:44:49;2.10;;;1.87;;
11111;SDS011;5609;49.466;8.468;2023-06-05T01:47:17;3.50;;;2.33;;
11111;SDS011;5609;49.466;8.468;2023-06-05T01:49:46;4.63;;;2.20;;
11111;SDS011;5609;49.466;8.468;2023-06-05T01:52:14;3.60;;;2.27;;
11111;SDS011;5609;49.466;8.468;2023-06-05T01:54:41;3.80;;;2.10;;
11111;SDS011;5609;49.466;8.468;2023-06-05T01:57:08;2.93;;;2.17;;
11111;SDS011;5609;49.466;8.468;2023-06-05T01:59:38;4.90;;;2.10;;
11111;SDS011;5609;49.466;8.468;2023-06-05T02:02:05;4.33;;;2.40;;
11111;SDS011;5609;49.466;8.468;2023-06-05T02:04:33;3.07;;;2.13;;
11111;SDS011;5609;49.466;8.468;2023-06-05T02:07:00;5.83;;;2.10;;
11111;SDS011;5609;49.466;8.468;2023-06-05T02:09:28;3.13;;;1.93;;
11111;SDS011;5609;49.466;8.468;2023-06-05T02:11:57;2.73;;;2.00;;
11111;SDS011;5609;49.466;8.468;2023-06-05T02:14:28;2.20;;;1.90;;
11111;SDS011;5609;49.466;8.468;2023-06-05T02:16:58;2.50;;;2.00;;
11111;SDS011;5609;49.466;8.468;2023-06-05T02:19:25;2.57;;;2.00;;
11111;SDS011;5609;49.466;8.468;2023-06-05T02:21:52;2.83;;;2.00;;
11111;SDS011;5609;49.466;8.468;2023-06-05T02:24:19;4.60;;;2.00;;
11111;SDS011;5609;49.466;8.468;2023-06-05T02:26:46;3.23;;;2.03;;
11111;SDS011;5609;49.466;8.468;2023-06-05T02:29:13;3.93;;;2.10;;
11111;SDS011;5609;49.466;8.468;2023-06-05T02:31:40;2.83;;;2.00;;
11111;SDS011;5609;49.466;8.468;2023-06-05T02:34:10;2.50;;;2.20;;
11111;SDS011;5609;49.466;8.468;2023-06-05T02:36:37;2.33;;;2.00;;
11111;SDS011;5609;49.466;8.468;2023-06-05T02:39:05;2.60;;;2.30;;
11111;SDS011;5609;49.466;8.468;2023-06-05T02:41:33;2.70;;;2.00;;
11111;SDS011;5609;49.466;8.468;2023-06-05T02:43:59;4.50;;;2.03;;
11111;SDS011;5609;49.466;8.468;2023-06-05T02:46:26;3.17;;;2.20;;
11111;SDS011;5609;49.466;8.468;2023-06-05T02:48:53;2.40;;;2.00;;
11111;SDS011;5609;49.466;8.468;2023-06-05T02:51:22;2.30;;;2.10;;
11111;SDS011;5609;49.466;8.468;2023-06-05T02:53:49;3.83;;;2.20;;
11111;SDS011;5609;49.466;8.468;2023-06-05T02:56:16;3.73;;;2.00;;
11111;SDS011;5609;49.466;8.468;2023-06-05T02:58:43;2.70;;;2.50;;
11111;SDS011;5609;49.466;8.468;2023-06-05T03:01:10;3.60;;;2.30;;
11111;SDS011;5609;49.466;8.468;2023-06-05T03:03:37;3.33;;;2.30;;
11111;SDS011;5609;49.466;8.468;2023-06-05T03:06:04;3.17;;;2.27;;
11111;SDS011;5609;49.466;8.468;2023-06-05T03:08:33;3.23;;;2.30;;
11111;SDS011;5609;49.466;8.468;2023-06-05T03:11:00;3.00;;;2.17;;
11111;SDS011;5609;49.466;8.468;2023-06-05T03:13:27;4.03;;;2.43;;
11111;SDS011;5609;49.466;8.468;2023-06-05T03:15:55;3.10;;;2.20;;
11111;SDS011;5609;49.466;8.468;2023-06-05T03:18:23;2.50;;;2.30;;
11111;SDS011;5609;49.466;8.468;2023-06-05T03:20:50;3.50;;;2.27;;
11111;SDS011;5609;49.466;8.468;2023-06-05T03:23:19;4.40;;;2.53;;
11111;SDS011;5609;49.466;8.468;2023-06-05T03:25:48;5.00;;;2.23;;
11111;SDS011;5609;49.466;8.468;2023-06-05T03:28:15;3.43;;;2.40;;
11111;SDS011;5609;49.466;8.468;2023-06-05T03:30:42;2.20;;;2.00;;
11111;SDS011;5609;49.466;8.468;2023-06-05T03:33:09;4.73;;;2.33;;
11111;SDS011;5609;49.466;8.468;2023-06-05T03:35:36;3.13;;;2.43;;
11111;SDS011;5609;49.466;8.468;2023-06-05T03:38:05;5.17;;;2.30;;
11111;SDS011;5609;49.466;8.468;2023-06-05T03:40:32;3.87;;;2.20;;
11111;SDS011;5609;49.466;8.468;2023-06-05T03:43:00;4.00;;;2.23;;
11111;SDS011;5609;49.466;8.468;2023-06-05T03:45:27;3.27;;;2.37;;
11111;SDS011;5609;49.466;8.468;2023-06-05T03:47:54;2.87;;;2.23;;
11111;SDS011;5609;49.466;8.468;2023-06-05T03:50:25;3.07;;;2.30;;
11111;SDS011;5609;49.466;8.468;2023-06-05T03:52:53;5.00;;;2.60;;
11111;SDS011;5609;49.466;8.468;2023-06-05T03:55:28;3.70;;;2.40;;
11111;SDS011;5609;49.466;8.468;2023-06-05T03:58:08;4.23;;;2.50;;
11111;SDS011;5609;49.466;8.468;2023-06-05T04:00:38;4.07;;;2.23;;
11111;SDS011;5609;49.466;8.468;2023-06-05T04:03:05;3.63;;;2.20;;
11111;SDS011;5609;49.466;8.468;2023-06-05T04:05:33;4.17;;;2.13;;
11111;SDS011;5609;49.466;8.468;2023-06-05T04:08:00;3.30;;;2.10;;
11111;SDS011;5609;49.466;8.468;2023-06-05T04:10:27;3.33;;;2.20;;
11111;SDS011;5609;49.466;8.468;2023-06-05T04:12:54;4.17;;;2.10;;
11111;SDS011;5609;49.466;8.468;2023-06-05T04:15:23;4.13;;;2.50;;
11111;SDS011;5609;49.466;8.468;2023-06-05T04:17:50;2.60;;;2.20;;
11111;SDS011;5609;49.466;8.468;2023-06-05T04:20:17;3.67;;;2.23;;
11111;SDS011;5609;49.466;8.468;2023-06-05T04:22:44;4.83;;;2.10;;
11111;SDS011;5609;49.466;8.468;2023-06-05T04:25:11;3.27;;;2.50;;
11111;SDS011;5609;49.466;8.468;2023-06-05T04:27:39;3.40;;;2.40;;
11111;SDS011;5609;49.466;8.468;2023-06-05T04:30:07;3.90;;;2.23;;
11111;SDS011;5609;49.466;8.468;2023-06-05T04:32:36;5.40;;;2.50;;
11111;SDS011;5609;49.466;8.468;2023-06-05T04:35:03;4.07;;;2.27;;
11111;SDS011;5609;49.466;8.468;2023-06-05T04:37:31;4.77;;;2.33;;
11111;SDS011;5609;49.466;8.468;2023-06-05T04:39:58;3.60;;;2.40;;
11111;SDS011;5609;49.466;8.468;2023-06-05T04:42:25;3.03;;;2.10;;
11111;SDS011;5609;49.466;8.468;2023-06-05T04:44:56;4.10;;;2.27;;
11111;SDS011;5609;49.466;8.468;2023-06-05T04:47:23;3.87;;;2.40;;
11111;SDS011;5609;49.466;8.468;2023-06-05T04:49:52;4.43;;;2.63;;
11111;SDS011;5609;49.466;8.468;2023-06-05T04:52:19;2.90;;;2.20;;
11111;SDS011;5609;49.466;8.468;2023-06-05T04:54:48;5.13;;;2.30;;
11111;SDS011;5609;49.466;8.468;2023-06-05T04:57:15;4.20;;;2.60;;
11111;SDS011;5609;49.466;8.468;2023-06-05T04:59:43;3.27;;;2.20;;
11111;SDS011;5609;49.466;8.468;2023-06-05T05:02:10;3.60;;;2.23;;
11111;SDS011;5609;49.466;8.468;2023-06-05T05:04:37;5.27;;;2.53;;
11111;SDS011;5609;49.466;8.468;2023-06-05T05:07:06;4.07;;;2.10;;
11111;SDS011;5609;49.466;8.468;2023-06-05T05:09:38;2.83;;;2.27;;
11111;SDS011;5609;49.466;8.468;2023-06-05T05:12:05;3.97;;;2.07;;
11111;SDS011;5609;49.466;8.468;2023-06-05T05:14:33;5.10;;;2.30;;
11111;SDS011;5609;49.466;8.468;2023-06-05T05:17:00;3.17;;;2.00;;
11111;SDS011;5609;49.466;8.468;2023-06-05T05:19:27;6.43;;;2.50;;
11111;SDS011;5609;49.466;8.468;2023-06-05T05:21:54;4.20;;;2.20;;
11111;SDS011;5609;49.466;8.468;2023-06-05T05:24:23;7.90;;;2.43;;
11111;SDS011;5609;49.466;8.468;2023-06-05T05:26:50;4.40;;;2.20;;
11111;SDS011;5609;49.466;8.468;2023-06-05T05:29:17;4.23;;;2.60;;
11111;SDS011;5609;49.466;8.468;2023-06-05T05:31:44;4.07;;;2.50;;
11111;SDS011;5609;49.466;8.468;2023-06-05T05:34:11;7.37;;;2.70;;
11111;SDS011;5609;49.466;8.468;2023-06-05T05:36:38;6.53;;;2.80;;
11111;SDS011;5609;49.466;8.468;2023-06-05T05:39:05;8.40;;;2.60;;
11111;SDS011;5609;49.466;8.468;2023-06-05T05:41:34;8.80;;;2.60;;
11111;SDS011;5609;49.466;8.468;2023-06-05T05:44:01;9.23;;;2.70;;
11111;SDS011;5609;49.466;8.468;2023-06-05T05:46:28;7.30;;;2.63;;
11111;SDS011;5609;49.466;8.468;2023-06-05T05:48:55;7.77;;;2.70;;
11111;SDS011;5609;49.466;8.468;2023-06-05T05:51:22;9.10;;;2.93;;
11111;SDS011;5609;49.466;8.468;2023-06-05T05:53:49;6.17;;;2.30;;
11111;SDS011;5609;49.466;8.468;2023-06-05T05:56:16;10.30;;;2.57;;
11111;SDS011;5609;49.466;8.468;2023-06-05T05:58:44;8.80;;;2.70;;
11111;SDS011;5609;49.466;8.468;2023-06-05T06:01:12;11.90;;;3.00;;
11111;SDS011;5609;49.466;8.468;2023-06-05T06:03:39;12.10;;;2.60;;
11111;SDS011;5609;49.466;8.468;2023-06-05T06:06:07;6.47;;;2.70;;
11111;SDS011;5609;49.466;8.468;2023-06-05T06:08:35;9.63;;;3.07;;
11111;SDS011;5609;49.466;8.468;2023-06-05T06:11:02;7.97;;;2.63;;
11111;SDS011;5609;49.466;8.468;2023-06-05T06:13:31;4.60;;;2.50;;
11111;SDS011;5609;49.466;8.468;2023-06-05T06:16:00;4.43;;;2.47;;
11111;SDS011;5609;49.466;8.468;2023-06-05T06:18:27;5.70;;;2.60;;
11111;SDS011;5609;49.466;8.468;2023-06-05T06:20:54;6.07;;;2.33;;
11111;SDS011;5609;49.466;8.468;2023-06-05T06:23:21;3.33;;;2.20;;
11111;SDS011;5609;49.466;8.468;2023-06-05T06:25:48;4.53;;;2.23;;
11111;SDS011;5609;49.466;8.468;2023-06-05T06:28:16;3.93;;;2.20;;
11111;SDS011;5609;49.466;8.468;2023-06-05T06:30:44;4.07;;;2.50;;
11111;SDS011;5609;49.466;8.468;2023-06-05T06:33:13;5.07;;;2.50;;
11111;SDS011;5609;49.466;8.468;2023-06-05T06:35:40;3.03;;;2.23;;
11111;SDS011;5609;49.466;8.468;2023-06-05T06:38:08;4.50;;;2.60;;
11111;SDS011;5609;49.466;8.468;2023-06-05T06:40:35;5.43;;;2.50;;
11111;SDS011;5609;49.466;8.468;2023-06-05T06:43:02;5.03;;;2.37;;
11111;SDS011;5609;49.466;8.468;2023-06-05T06:45:29;4.73;;;2.20;;
11111;SDS011;5609;49.466;8.468;2023-06-05T06:47:56;3.23;;;2.30;;
11111;SDS011;5609;49.466;8.468;2023-06-05T06:50:24;4.03;;;2.43;;
11111;SDS011;5609;49.466;8.468;2023-06-05T06:52:52;3.07;;;2.40;;
11111;SDS011;5609;49.466;8.468;2023-06-05T06:55:19;3.27;;;2.07;;
11111;SDS011;5609;49.466;8.468;2023-06-05T06:57:46;6.13;;;2.40;;
11111;SDS011;5609;49.466;8.468;2023-06-05T07:00:13;3.60;;;2.20;;
11111;SDS011;5609;49.466;8.468;2023-06-05T07:02:40;3.47;;;2.23;;
11111;SDS011;5609;49.466;8.468;2023-06-05T07:05:08;3.50;;;2.20;;
11111;SDS011;5609;49.466;8.468;2023-06-05T07:07:37;2.70;;;2.30;;
11111;SDS011;5609;49.466;8.468;2023-06-05T07:10:04;3.60;;;2.07;;
11111;SDS011;5609;49.466;8.468;2023-06-05T07:12:31;2.87;;;2.00;;
11111;SDS011;5609;49.466;8.468;2023-06-05T07:14:58;5.40;;;2.20;;
11111;SDS011;5609;49.466;8.468;2023-06-05T07:17:25;3.90;;;2.10;;
11111;SDS011;5609;49.466;8.468;2023-06-05T07:19:55;5.87;;;2.57;;
11111;SDS011;5609;49.466;8.468;2023-06-05T07:22:22;2.77;;;2.17;;
11111;SDS011;5609;49.466;8.468;2023-06-05T07:24:51;5.80;;;2.40;;
11111;SDS011;5609;49.466;8.468;2023-06-05T07:27:18;3.43;;;2.50;;
11111;SDS011;5609;49.466;8.468;2023-06-05T07:29:46;3.67;;;2.30;;
11111;SDS011;5609;49.466;8.468;2023-06-05T07:32:13;4.83;;;2.40;;
11111;SDS011;5609;49.466;8.468;2023-06-05T07:34:40;4.50;;;2.30;;
11111;SDS011;5609;49.466;8.468;2023-06-05T07:37:08;5.97;;;2.33;;
11111;SDS011;5609;49.466;8.468;2023-06-05T07:39:35;4.80;;;2.00;;
11111;SDS011;5609;49.466;8.468;2023-06-05T07:42:04;3.77;;;2.30;;
11111;SDS011;5609;49.466;8.468;2023-06-05T07:44:32;5.83;;;2.40;;
11111;SDS011;5609;49.466;8.468;2023-06-05T07:46:59;5.27;;;2.20;;
11111;SDS011;5609;49.466;8.468;2023-06-05T07:49:29;7.50;;;2.37;;
11111;SDS011;5609;49.466;8.468;2023-06-05T07:51:56;7.00;;;2.50;;
11111;SDS011;5609;49.466;8.468;2023-06-05T07:54:23;3.73;;;2.20;;
11111;SDS011;5609;49.466;8.468;2023-06-05T07:56:50;8.17;;;2.73;;
11111;SDS011;5609;49.466;8.468;2023-06-05T07:59:18;7.57;;;2.57;;
11111;SDS011;5609;49.466;8.468;2023-06-05T08:01:49;3.63;;;2.40;;
11111;SDS011;5609;49.466;8.468;2023-06-05T08:04:17;5.43;;;2.50;;
11111;SDS011;5609;49.466;8.468;2023-06-05T08:06:44;5.23;;;2.50;;
11111;SDS011;5609;49.466;8.468;2023-06-05T08:09:11;6.97;;;2.57;;
11111;SDS011;5609;49.466;8.468;2023-06-05T08:11:38;7.63;;;2.50;;
11111;SDS011;5609;49.466;8.468;2023-06-05T08:14:06;5.53;;;2.60;;
11111;SDS011;5609;49.466;8.468;2023-06-05T08:16:35;4.17;;;2.23;;
11111;SDS011;5609;49.466;8.468;2023-06-05T08:19:02;7.37;;;2.57;;
11111;SDS011;5609;49.466;8.468;2023-06-05T08:21:29;6.00;;;2.67;;
11111;SDS011;5609;49.466;8.468;2023-06-05T08:23:56;5.20;;;2.60;;
11111;SDS011;5609;49.466;8.468;2023-06-05T08:26:23;7.93;;;2.73;;
11111;SDS011;5609;49.466;8.468;2023-06-05T08:28:51;5.23;;;2.50;;
11111;SDS011;5609;49.466;8.468;2023-06-05T08:31:18;8.53;;;2.93;;
11111;SDS011;5609;49.466;8.468;2023-06-05T08:33:46;5.27;;;2.70;;
11111;SDS011;5609;49.466;8.468;2023-06-05T08:36:13;5.73;;;2.77;;
11111;SDS011;5609;49.466;8.468;2023-06-05T08:38:41;6.40;;;2.87;;
11111;SDS011;5609;49.466;8.468;2023-06-05T08:41:08;5.47;;;2.70;;
11111;SDS011;5609;49.466;8.468;2023-06-05T08:43:35;5.90;;;2.83;;
11111;SDS011;5609;49.466;8.468;2023-06-05T08:46:03;9.10;;;2.70;;
11111;SDS011;5609;49.466;8.468;2023-06-05T08:48:31;7.87;;;2.70;;
11111;SDS011;5609;49.466;8.468;2023-06-05T08:51:00;4.33;;;2.40;;
11111;SDS011;5609;49.466;8.468;2023-06-05T08:53:28;4.90;;;2.53;;
11111;SDS011;5609;49.466;8.468;2023-06-05T08:55:57;5.03;;;2.60;;
11111;SDS011;5609;49.466;8.468;2023-06-05T08:58:24;3.60;;;2.60;;
11111;SDS011;5609;49.466;8.468;2023-06-05T09:00:51;7.30;;;2.60;;
11111;SDS011;5609;49.466;8.468;2023-06-05T09:03:18;6.00;;;2.50;;
11111;SDS011;5609;49.466;8.468;2023-06-05T09:05:46;8.47;;;2.70;;
11111;SDS011;5609;49.466;8.468;2023-06-05T09:08:14;5.03;;;2.50;;
11111;SDS011;5609;49.466;8.468;2023-06-05T09:10:42;4.70;;;2.53;;
11111;SDS011;5609;49.466;8.468;2023-06-05T09:13:10;4.23;;;2.50;;
11111;SDS011;5609;49.466;8.468;2023-06-05T09:15:36;4.70;;;2.50;;
11111;SDS011;5609;49.466;8.468;2023-06-05T09:18:05;5.30;;;2.60;;
11111;SDS011;5609;49.466;8.468;2023-06-05T09:20:33;4.67;;;2.50;;
11111;SDS011;5609;49.466;8.468;2023-06-05T09:23:01;4.00;;;2.67;;
11111;SDS011;5609;49.466;8.468;2023-06-05T09:25:40;3.73;;;2.53;;
11111;SDS011;5609;49.466;8.468;2023-06-05T09:28:10;3.93;;;2.33;;
11111;SDS011;5609;49.466;8.468;2023-06-05T09:30:46;6.30;;;2.50;;
11111;SDS011;5609;49.466;8.468;2023-06-05T09:33:20;3.37;;;2.40;;
11111;SDS011;5609;49.466;8.468;2023-06-05T09:35:47;4.97;;;2.50;;
11111;SDS011;5609;49.466;8.468;2023-06-05T09:38:24;3.63;;;2.57;;
11111;SDS011;5609;49.466;8.468;2023-06-05T09:40:53;3.33;;;2.40;;
11111;SDS011;5609;49.466;8.468;2023-06-05T09:43:27;5.13;;;2.70;;
11111;SDS011;5609;49.466;8.468;2023-06-05T09:45:54;6.47;;;2.70;;
11111;SDS011;5609;49.466;8.468;2023-06-05T09:48:21;2.83;;;2.37;;
11111;SDS011;5609;49.466;8.468;2023-06-05T09:50:50;4.07;;;2.60;;
11111;SDS011;5609;49.466;8.468;2023-06-05T09:53:17;5.73;;;2.60;;
11111;SDS011;5609;49.466;8.468;2023-06-05T09:55:46;6.07;;;2.50;;
11111;SDS011;5609;49.466;8.468;2023-06-05T09:58:15;4.43;;;2.67;;
11111;SDS011;5609;49.466;8.468;2023-06-05T10:00:42;4.70;;;2.80;;
11111;SDS011;5609;49.466;8.468;2023-06-05T10:03:12;4.40;;;2.73;;
11111;SDS011;5609;49.466;8.468;2023-06-05T10:05:40;4.70;;;2.63;;
11111;SDS011;5609;49.466;8.468;2023-06-05T10:08:07;4.13;;;2.50;;
11111;SDS011;5609;49.466;8.468;2023-06-05T10:10:34;3.33;;;2.80;;
11111;SDS011;5609;49.466;8.468;2023-06-05T10:13:02;6.23;;;3.20;;
11111;SDS011;5609;49.466;8.468;2023-06-05T10:15:31;3.23;;;2.90;;
11111;SDS011;5609;49.466;8.468;2023-06-05T10:17:58;4.43;;;2.80;;
11111;SDS011;5609;49.466;8.468;2023-06-05T10:20:26;3.67;;;2.77;;
11111;SDS011;5609;49.466;8.468;2023-06-05T10:22:53;3.43;;;2.90;;
11111;SDS011;5609;49.466;8.468;2023-06-05T10:25:20;3.50;;;3.20;;
11111;SDS011;5609;49.466;8.468;2023-06-05T10:27:50;3.33;;;3.00;;
11111;SDS011;5609;49.466;8.468;2023-06-05T10:33:11;6.90;;;3.20;;
11111;SDS011;5609;49.466;8.468;2023-06-05T10:35:45;3.33;;;3.03;;
11111;SDS011;5609;49.466;8.468;2023-06-05T10:38:17;4.13;;;2.70;;
11111;SDS011;5609;49.466;8.468;2023-06-05T10:40:45;5.03;;;2.80;;
11111;SDS011;5609;49.466;8.468;2023-06-05T10:43:25;4.37;;;2.87;;
11111;SDS011;5609;49.466;8.468;2023-06-05T10:45:53;4.43;;;2.90;;
11111;SDS011;5609;49.466;8.468;2023-06-05T10:48:21;5.23;;;2.93;;
11111;SDS011;5609;49.466;8.468;2023-06-05T10:51:31;4.60;;;2.77;;
11111;SDS011;5609;49.466;8.468;2023-06-05T10:53:58;3.63;;;2.70;;
11111;SDS011;5609;49.466;8.468;2023-06-05T10:59:11;5.60;;;3.10;;
11111;SDS011;5609;49.466;8.468;2023-06-05T11:01:38;7.47;;;2.77;;
11111;SDS011;5609;49.466;8.468;2023-06-05T11:04:07;3.67;;;3.00;;
11111;SDS011;5609;49.466;8.468;2023-06-05T11:06:34;5.03;;;2.87;;
11111;SDS011;5609;49.466;8.468;2023-06-05T11:09:06;3.23;;;2.93;;
11111;SDS011;5609;49.466;8.468;2023-06-05T11:14:20;3.13;;;2.83;;
11111;SDS011;5609;49.466;8.468;2023-06-05T11:16:47;6.03;;;2.90;;
11111;SDS011;5609;49.466;8.468;2023-06-05T11:22:08;3.67;;;2.70;;
11111;SDS011;5609;49.466;8.468;2023-06-05T11:24:36;3.20;;;2.87;;
11111;SDS011;5609;49.466;8.468;2023-06-05T11:27:04;4.10;;;2.70;;
11111;SDS011;5609;49.466;8.468;2023-06-05T11:29:34;3.20;;;2.80;;
11111;SDS011;5609;49.466;8.468;2023-06-05T11:32:10;5.27;;;2.70;;
11111;SDS011;5609;49.466;8.468;2023-06-05T11:34:37;3.93;;;2.40;;
11111;SDS011;5609;49.466;8.468;2023-06-05T11:37:15;2.93;;;2.53;;
11111;SDS011;5609;49.466;8.468;2023-06-05T11:39:44;3.63;;;2.40;;
11111;SDS011;5609;49.466;8.468;2023-06-05T11:42:10;5.90;;;2.60;;
11111;SDS011;5609;49.466;8.468;2023-06-05T11:44:37;2.63;;;2.43;;
11111;SDS011;5609;49.466;8.468;2023-06-05T11:47:05;2.90;;;2.50;;
11111;SDS011;5609;49.466;8.468;2023-06-05T11:49:32;3.63;;;2.57;;
11111;SDS011;5609;49.466;8.468;2023-06-05T11:51:59;3.97;;;2.50;;
11111;SDS011;5609;49.466;8.468;2023-06-05T11:54:28;3.17;;;2.13;;
11111;SDS011;5609;49.466;8.468;2023-06-05T11:56:56;3.40;;;2.40;;
11111;SDS011;5609;49.466;8.468;2023-06-05T11:59:23;2.47;;;2.10;;
11111;SDS011;5609;49.466;8.468;2023-06-05T12:01:50;3.70;;;2.40;;
11111;SDS011;5609;49.466;8.468;2023-06-05T12:04:19;2.70;;;2.30;;
11111;SDS011;5609;49.466;8.468;2023-06-05T12:06:46;5.17;;;2.50;;
11111;SDS011;5609;49.466;8.468;2023-06-05T12:09:13;3.43;;;2.60;;
11111;SDS011;5609;49.466;8.468;2023-06-05T12:11:43;2.83;;;2.40;;
11111;SDS011;5609;49.466;8.468;2023-06-05T12:14:10;2.60;;;2.40;;
11111;SDS011;5609;49.466;8.468;2023-06-05T12:16:38;3.23;;;2.20;;
11111;SDS011;5609;49.466;8.468;2023-06-05T12:19:10;3.90;;;2.40;;
11111;SDS011;5609;49.466;8.468;2023-06-05T12:21:37;3.67;;;2.63;;
11111;SDS011;5609;49.466;8.468;2023-06-05T12:24:05;3.47;;;2.40;;
11111;SDS011;5609;49.466;8.468;2023-06-05T12:29:26;4.33;;;2.40;;
11111;SDS011;5609;49.466;8.468;2023-06-05T12:31:54;3.45;;;2.30;;
11111;SDS011;5609;49.466;8.468;2023-06-05T12:34:40;3.67;;;2.60;;
11111;SDS011;5609;49.466;8.468;2023-06-05T12:37:09;3.07;;;2.37;;
11111;SDS011;5609;49.466;8.468;2023-06-05T12:39:37;4.93;;;2.30;;
11111;SDS011;5609;49.466;8.468;2023-06-05T12:42:05;4.00;;;2.70;;
11111;SDS011;5609;49.466;8.468;2023-06-05T12:44:34;5.97;;;2.50;;
11111;SDS011;5609;49.466;8.468;2023-06-05T12:47:01;3.85;;;2.65;;
11111;SDS011;5609;49.466;8.468;2023-06-05T12:49:28;2.55;;;2.20;;
11111;SDS011;5609;49.466;8.468;2023-06-05T12:51:55;3.27;;;2.40;;
11111;SDS011;5609;49.466;8.468;2023-06-05T12:54:22;2.60;;;2.38;;
11111;SDS011;5609;49.466;8.468;2023-06-05T12:56:49;2.92;;;2.55;;
11111;SDS011;5609;49.466;8.468;2023-06-05T12:59:16;3.53;;;2.35;;
11111;SDS011;5609;49.466;8.468;2023-06-05T13:01:44;3.70;;;2.50;;
11111;SDS011;5609;49.466;8.468;2023-06-05T13:04:12;3.00;;;2.47;;
11111;SDS011;5609;49.466;8.468;2023-06-05T13:06:40;2.80;;;2.35;;
11111;SDS011;5609;49.466;8.468;2023-06-05T13:09:07;3.75;;;2.40;;
11111;SDS011;5609;49.466;8.468;2023-06-05T13:11:35;2.90;;;2.55;;
11111;SDS011;5609;49.466;8.468;2023-06-05T13:14:02;2.90;;;2.30;;
11111;SDS011;5609;49.466;8.468;2023-06-05T13:16:30;3.47;;;2.20;;
11111;SDS011;5609;49.466;8.468;2023-06-05T13:18:59;2.50;;;2.30;;
11111;SDS011;5609;49.466;8.468;2023-06-05T13:21:26;4.75;;;2.40;;
11111;SDS011;5609;49.466;8.468;2023-06-05T13:23:53;2.95;;;2.25;;
11111;SDS011;5609;49.466;8.468;2023-06-05T13:26:20;4.22;;;2.30;;
11111;SDS011;5609;49.466;8.468;2023-06-05T13:28:47;3.00;;;2.30;;
11111;SDS011;5609;49.466;8.468;2023-06-05T13:31:14;3.47;;;2.45;;
11111;SDS011;5609;49.466;8.468;2023-06-05T13:33:42;3.08;;;2.20;;
11111;SDS011;5609;49.466;8.468;2023-06-05T13:36:10;3.83;;;2.13;;
11111;SDS011;5609;49.466;8.468;2023-06-05T13:38:37;2.30;;;2.10;;
11111;SDS011;5609;49.466;8.468;2023-06-05T13:41:04;3.15;;;2.30;;
11111;SDS011;5609;49.466;8.468;2023-06-05T13:43:31;3.75;;;2.50;;
11111;SDS011;5609;49.466;8.468;2023-06-05T13:45:59;3.53;;;2.28;;
11111;SDS011;5609;49.466;8.468;2023-06-05T13:48:26;3.15;;;2.05;;
11111;SDS011;5609;49.466;8.468;2023-06-05T13:50:54;3.67;;;2.20;;
11111;SDS011;5609;49.466;8.468;2023-06-05T13:53:23;2.33;;;1.92;;
11111;SDS011;5609;49.466;8.468;2023-06-05T13:55:50;3.25;;;2.22;;
11111;SDS011;5609;49.466;8.468;2023-06-05T13:58:17;2.47;;;2.28;;
11111;SDS011;5609;49.466;8.468;2023-06-05T14:00:45;3.05;;;2.10;;
11111;SDS011;5609;49.466;8.468;2023-06-05T14:03:12;3.10;;;2.10;;
11111;SDS011;5609;49.466;8.468;2023-06-05T14:05:39;2.55;;;2.25;;
11111;SDS011;5609;49.466;8.468;2023-06-05T14:08:06;2.38;;;2.17;;
11111;SDS011;5609;49.466;8.468;2023-06-05T14:10:34;2.97;;;2.25;;
11111;SDS011;5609;49.466;8.468;2023-06-05T14:13:01;3.53;;;2.00;;
11111;SDS011;5609;49.466;8.468;2023-06-05T14:15:30;2.35;;;2.10;;
11111;SDS011;5609;49.466;8.468;2023-06-05T14:17:57;2.72;;;1.95;;
11111;SDS011;5609;49.466;8.468;2023-06-05T14:20:24;2.42;;;1.85;;
11111;SDS011;5609;49.466;8.468;2023-06-05T14:22:51;3.47;;;2.20;;
11111;SDS011;5609;49.466;8.468;2023-06-05T14:25:18;2.35;;;1.92;;
11111;SDS011;5609;49.466;8.468;2023-06-05T14:27:47;3.33;;;1.90;;
11111;SDS011;5609;49.466;8.468;2023-06-05T14:30:14;2.30;;;2.10;;
11111;SDS011;5609;49.466;8.468;2023-06-05T14:32:41;3.67;;;2.10;;
11111;SDS011;5609;49.466;8.468;2023-06-05T14:35:08;2.05;;;1.90;;
11111;SDS011;5609;49.466;8.468;2023-06-05T14:37:35;4.38;;;1.92;;
11111;SDS011;5609;49.466;8.468;2023-06-05T14:40:02;2.85;;;2.08;;
11111;SDS011;5609;49.466;8.468;2023-06-05T14:42:30;2.00;;;1.75;;
11111;SDS011;5609;49.466;8.468;2023-06-05T14:44:58;4.65;;;1.90;;
11111;SDS011;5609;49.466;8.468;2023-06-05T14:47:25;2.92;;;1.90;;
11111;SDS011;5609;49.466;8.468;2023-06-05T14:49:52;3.08;;;1.92;;
11111;SDS011;5609;49.466;8.468;2023-06-05T14:52:19;4.30;;;2.10;;
11111;SDS011;5609;49.466;8.468;2023-06-05T14:54:46;3.20;;;1.85;;
11111;SDS011;5609;49.466;8.468;2023-06-05T14:57:13;2.00;;;1.90;;
11111;SDS011;5609;49.466;8.468;2023-06-05T14:59:40;2.50;;;1.80;;
11111;SDS011;5609;49.466;8.468;2023-06-05T15:02:08;2.15;;;1.95;;
11111;SDS011;5609;49.466;8.468;2023-06-05T15:04:35;2.58;;;1.85;;
11111;SDS011;5609;49.466;8.468;2023-06-05T15:07:02;3.35;;;1.90;;
11111;SDS011;5609;49.466;8.468;2023-06-05T15:09:29;3.72;;;2.00;;
11111;SDS011;5609;49.466;8.468;2023-06-05T15:11:56;2.22;;;2.03;;
11111;SDS011;5609;49.466;8.468;2023-06-05T15:14:25;2.70;;;2.03;;
11111;SDS011;5609;49.466;8.468;2023-06-05T15:16:52;2.15;;;1.90;;
11111;SDS011;5609;49.466;8.468;2023-06-05T15:19:20;3.00;;;1.83;;